Time;durP1;ratioP1;P1;durP2;ratioP2;P2;SDS_P1;SDS_P2;PMS_P1;PMS_P2;Temp;Humidity;BMP_temperature;BMP_pressure;BME280_temperature;BME280_humidity;BME280_pressure;Samples;Min_cycle;Max_cycle;Signal;HPM_P1;HPM_P2
2021/09/10 00:00:49;;;;;;;13.87;11.20;;;17.80;99.90;;;;;;5075676;28;20181;-90
2021/09/10 00:03:15;;;;;;;12.00;10.80;;;17.80;99.90;;;;;;5074483;28;20178;-89
2021/09/10 00:05:40;;;;;;;12.83;11.53;;;17.70;99.90;;;;;;5075610;28;20474;-91
2021/09/10 00:08:09;;;;;;;12.50;11.17;;;17.60;99.90;;;;;;5075479;28;20688;-92
2021/09/10 00:10:34;;;;;;;13.60;12.30;;;17.50;99.90;;;;;;5075431;28;20537;-91
2021/09/10 00:13:00;;;;;;;14.50;12.93;;;17.60;99.90;;;;;;5074604;28;20510;-89
2021/09/10 00:15:27;;;;;;;14.23;12.73;;;17.70;99.90;;;;;;5075703;28;20175;-91
2021/09/10 00:17:53;;;;;;;13.50;12.20;;;17.80;99.90;;;;;;5075470;28;20413;-85
2021/09/10 00:20:18;;;;;;;15.77;14.27;;;18.00;99.90;;;;;;5075394;28;20521;-92
2021/09/10 00:22:44;;;;;;;15.70;14.27;;;18.00;99.90;;;;;;5074119;28;20172;-91
2021/09/10 00:25:10;;;;;;;15.43;14.03;;;18.00;99.90;;;;;;5076043;28;20222;-92
2021/09/10 00:27:36;;;;;;;18.23;13.27;;;18.20;99.90;;;;;;5076297;28;20668;-93
2021/09/10 00:30:03;;;;;;;16.70;13.90;;;18.20;99.90;;;;;;5076656;28;21161;-93
2021/09/10 00:32:28;;;;;;;13.97;12.67;;;18.10;99.90;;;;;;5076639;28;20413;-92
2021/09/10 00:34:54;;;;;;;12.70;11.40;;;18.10;99.90;;;;;;5076380;28;20425;-93
2021/09/10 00:37:19;;;;;;;15.47;13.47;;;18.00;99.90;;;;;;5075752;28;20187;-90
2021/09/10 00:39:45;;;;;;;15.03;13.63;;;18.10;99.90;;;;;;5076498;28;20173;-94
2021/09/10 00:42:11;;;;;;;19.73;13.73;;;18.10;99.90;;;;;;5076061;28;20178;-84
2021/09/10 00:44:36;;;;;;;13.83;12.43;;;18.10;99.90;;;;;;5075862;28;20222;-92
2021/09/10 00:47:05;;;;;;;13.20;12.00;;;18.20;99.90;;;;;;5075805;28;20253;-92
2021/09/10 00:49:30;;;;;;;14.97;13.47;;;18.20;99.90;;;;;;5075308;28;20196;-93
2021/09/10 00:51:57;;;;;;;14.00;12.37;;;18.20;99.90;;;;;;5074895;28;20417;-90
2021/09/10 00:54:24;;;;;;;17.00;14.60;;;18.10;99.90;;;;;;5074948;28;20525;-93
2021/09/10 00:56:49;;;;;;;14.90;13.50;;;18.20;99.90;;;;;;5075012;28;20439;-91
2021/09/10 00:59:15;;;;;;;14.67;13.17;;;18.10;99.90;;;;;;5073740;28;20456;-92
2021/09/10 01:01:45;;;;;;;14.90;12.07;;;18.10;99.90;;;;;;5073678;28;20180;-91
2021/09/10 01:04:10;;;;;;;13.43;12.23;;;18.10;99.90;;;;;;5074669;28;20202;-86
2021/09/10 01:06:37;;;;;;;15.03;12.90;;;18.10;99.90;;;;;;5074396;28;20529;-89
2021/09/10 01:09:03;;;;;;;14.70;13.00;;;18.00;99.90;;;;;;5074248;28;20632;-89
2021/09/10 01:11:29;;;;;;;13.20;11.87;;;18.00;99.90;;;;;;5074406;28;20536;-91
2021/09/10 01:13:55;;;;;;;13.33;12.00;;;18.00;99.90;;;;;;5074485;28;20406;-90
2021/09/10 01:16:22;;;;;;;15.33;13.83;;;17.90;99.90;;;;;;5073132;28;20503;-86
2021/09/10 01:18:49;;;;;;;16.37;14.80;;;17.90;99.90;;;;;;5074551;28;20487;-91
2021/09/10 01:21:17;;;;;;;17.53;15.67;;;18.00;99.90;;;;;;5073178;28;20490;-92
2021/09/10 01:23:43;;;;;;;17.40;13.97;;;18.10;99.90;;;;;;5072773;28;20546;-90
2021/09/10 01:26:09;;;;;;;15.77;14.27;;;18.10;99.90;;;;;;5074489;28;20474;-92
2021/09/10 01:28:34;;;;;;;15.87;14.47;;;18.10;99.90;;;;;;5073283;28;20219;-92
2021/09/10 01:31:00;;;;;;;17.37;15.77;;;18.10;99.90;;;;;;5073865;28;20236;-89
2021/09/10 01:33:26;;;;;;;16.67;15.03;;;18.00;99.90;;;;;;5074545;28;20167;-88
2021/09/10 01:35:54;;;;;;;16.90;15.50;;;17.80;99.90;;;;;;5074388;28;20198;-91
2021/09/10 01:38:20;;;;;;;16.33;13.80;;;17.80;99.90;;;;;;5073876;28;20261;-91
2021/09/10 01:40:46;;;;;;;15.60;14.00;;;17.80;99.90;;;;;;5073289;28;20472;-92
2021/09/10 01:43:12;;;;;;;16.30;14.73;;;17.70;99.90;;;;;;5073653;28;20187;-93
2021/09/10 01:45:38;;;;;;;15.27;13.50;;;17.70;99.90;;;;;;5074010;28;20211;-91
2021/09/10 01:48:04;;;;;;;15.87;14.37;;;17.50;99.90;;;;;;5074190;28;20462;-93
2021/09/10 01:50:29;;;;;;;16.33;12.80;;;17.40;99.90;;;;;;5072976;28;20630;-94
2021/09/10 01:52:55;;;;;;;14.10;12.70;;;17.50;99.90;;;;;;5073764;28;20248;-93
2021/09/10 01:55:21;;;;;;;15.60;14.17;;;17.50;99.90;;;;;;5074094;28;20222;-92
2021/09/10 01:57:49;;;;;;;15.87;14.47;;;17.50;99.90;;;;;;5073985;28;20171;-92
2021/09/10 02:00:19;;;;;;;16.60;14.17;;;17.60;99.90;;;;;;5073197;28;20181;-91
2021/09/10 02:02:54;;;;;;;14.43;13.03;;;17.70;99.90;;;;;;5074039;28;20442;-93
2021/09/10 02:05:19;;;;;;;15.90;14.40;;;17.60;99.90;;;;;;5074570;28;20854;-91
2021/09/10 02:07:48;;;;;;;16.30;14.70;;;17.40;99.90;;;;;;5073413;28;20432;-92
2021/09/10 02:10:14;;;;;;;17.07;15.37;;;17.50;99.90;;;;;;5073334;28;20614;-85
2021/09/10 02:12:40;;;;;;;19.10;15.57;;;17.50;99.90;;;;;;5073125;28;20819;-85
2021/09/10 02:15:07;;;;;;;17.60;15.90;;;17.40;99.90;;;;;;5071952;28;20470;-93
2021/09/10 02:17:33;;;;;;;18.27;16.40;;;17.40;99.90;;;;;;5073598;28;20453;-92
2021/09/10 02:19:58;;;;;;;17.33;15.77;;;17.40;99.90;;;;;;5072480;28;20920;-90
2021/09/10 02:22:24;;;;;;;17.57;15.83;;;17.40;99.90;;;;;;5073080;28;20166;-91
2021/09/10 02:24:50;;;;;;;19.17;15.80;;;17.40;99.90;;;;;;5073269;28;20213;-90
2021/09/10 02:27:16;;;;;;;20.10;18.03;;;17.40;99.90;;;;;;5073660;28;20184;-91
2021/09/10 02:29:41;;;;;;;17.27;15.50;;;17.40;99.90;;;;;;5072271;28;20529;-88
2021/09/10 02:32:07;;;;;;;17.53;15.83;;;17.50;99.90;;;;;;5073342;28;20409;-90
2021/09/10 02:34:42;;;;;;;16.20;14.70;;;17.50;99.90;;;;;;5073287;28;20169;-89
2021/09/10 02:37:08;;;;;;;17.53;15.57;;;17.50;99.90;;;;;;5073028;28;20176;-86
2021/09/10 02:39:33;;;;;;;21.73;17.47;;;17.60;99.90;;;;;;5059548;28;20422;-91
2021/09/10 02:41:59;;;;;;;18.80;16.93;;;17.60;99.90;;;;;;5053196;28;20163;-90
2021/09/10 02:44:24;;;;;;;17.03;15.37;;;17.60;99.90;;;;;;5055746;28;20199;-90
2021/09/10 02:46:51;;;;;;;18.03;15.83;;;17.70;99.90;;;;;;5056208;28;20274;-89
2021/09/10 02:49:17;;;;;;;17.60;15.80;;;17.70;99.90;;;;;;5057170;28;20253;-92
2021/09/10 02:51:42;;;;;;;19.00;16.00;;;17.60;99.90;;;;;;5057094;28;20938;-90
2021/09/10 02:54:08;;;;;;;18.87;17.00;;;17.60;99.90;;;;;;5057381;28;20246;-90
2021/09/10 02:56:34;;;;;;;16.87;15.07;;;17.60;99.90;;;;;;5057274;28;20256;-90
2021/09/10 02:59:00;;;;;;;17.50;15.80;;;17.60;99.90;;;;;;5057168;28;20166;-90
2021/09/10 03:01:25;;;;;;;16.67;14.50;;;17.50;99.90;;;;;;5055639;28;20477;-90
2021/09/10 03:03:51;;;;;;;16.07;14.57;;;17.50;99.90;;;;;;5057332;28;20250;-91
2021/09/10 03:06:17;;;;;;;16.90;14.80;;;17.50;99.90;;;;;;5057109;28;20253;-91
2021/09/10 03:08:42;;;;;;;16.80;15.13;;;17.50;99.90;;;;;;5056658;28;20202;-91
2021/09/10 03:11:09;;;;;;;16.03;14.47;;;17.50;99.90;;;;;;5056853;28;20213;-92
2021/09/10 03:13:34;;;;;;;16.73;15.17;;;17.50;99.90;;;;;;5055964;28;20180;-94
2021/09/10 03:16:00;;;;;;;15.67;14.17;;;17.60;99.90;;;;;;5057235;28;20952;-94
2021/09/10 03:18:26;;;;;;;17.70;16.00;;;17.60;99.90;;;;;;5055793;28;20187;-91
2021/09/10 03:20:51;;;;;;;16.67;15.07;;;17.60;99.90;;;;;;5057043;28;20216;-92
2021/09/10 03:23:17;;;;;;;17.80;16.07;;;17.70;99.90;;;;;;5056785;28;20247;-93
2021/09/10 03:25:42;;;;;;;16.53;15.13;;;17.70;99.90;;;;;;5055852;28;20696;-93
2021/09/10 03:28:08;;;;;;;17.10;15.40;;;17.70;99.90;;;;;;5056785;28;20182;-93
2021/09/10 03:30:34;;;;;;;17.30;15.70;;;17.70;99.90;;;;;;5057045;28;20228;-91
2021/09/10 03:32:59;;;;;;;18.40;16.70;;;17.70;99.90;;;;;;5055600;28;20218;-94
2021/09/10 03:35:25;;;;;;;17.57;15.67;;;17.70;99.90;;;;;;5055657;28;20717;-92
2021/09/10 03:37:50;;;;;;;16.57;14.87;;;17.80;99.90;;;;;;5055183;28;20218;-92
2021/09/10 03:40:16;;;;;;;17.83;16.23;;;17.70;99.90;;;;;;5056620;28;20176;-93
2021/09/10 03:42:41;;;;;;;14.57;13.27;;;17.60;99.90;;;;;;5055343;28;20638;-90
2021/09/10 03:45:08;;;;;;;16.43;14.73;;;17.60;99.90;;;;;;5056520;28;20635;-92
2021/09/10 03:47:33;;;;;;;18.33;16.50;;;17.70;99.90;;;;;;5056413;28;20176;-93
2021/09/10 03:49:59;;;;;;;17.60;15.73;;;17.70;99.90;;;;;;5056379;28;20923;-91
2021/09/10 03:52:24;;;;;;;16.33;14.73;;;17.80;99.90;;;;;;5055087;28;20207;-92
2021/09/10 03:54:50;;;;;;;18.53;16.10;;;17.70;99.90;;;;;;5056087;28;20169;-91
2021/09/10 03:57:16;;;;;;;17.40;15.80;;;17.70;99.90;;;;;;5056438;28;20167;-92
2021/09/10 03:59:41;;;;;;;18.03;16.33;;;17.70;99.90;;;;;;5056352;28;20168;-94
2021/09/10 04:02:07;;;;;;;19.87;17.77;;;17.60;99.90;;;;;;5056110;28;20175;-92
2021/09/10 04:04:32;;;;;;;19.17;17.20;;;17.60;99.90;;;;;;5056249;28;20660;-92
2021/09/10 04:06:58;;;;;;;19.37;17.03;;;17.70;99.90;;;;;;5055731;28;20206;-90
2021/09/10 04:09:24;;;;;;;18.93;17.10;;;17.80;99.90;;;;;;5056161;28;20170;-91
2021/09/10 04:11:49;;;;;;;19.93;16.87;;;17.80;99.90;;;;;;5055941;28;20223;-92
2021/09/10 04:14:15;;;;;;;20.33;17.23;;;17.70;99.90;;;;;;5055979;28;20176;-92
2021/09/10 04:16:40;;;;;;;16.53;14.93;;;17.80;99.90;;;;;;5054839;28;20174;-90
2021/09/10 04:19:06;;;;;;;17.13;14.30;;;17.80;99.90;;;;;;5055702;28;20257;-90
2021/09/10 04:21:32;;;;;;;17.37;15.57;;;17.80;99.90;;;;;;5055184;28;20175;-90
2021/09/10 04:23:57;;;;;;;18.40;16.60;;;17.80;99.90;;;;;;5055259;28;20218;-90
2021/09/10 04:26:23;;;;;;;18.27;16.33;;;17.80;99.90;;;;;;5055173;28;20294;-89
2021/09/10 04:28:49;;;;;;;18.00;16.30;;;17.70;99.90;;;;;;5055185;28;20175;-90
2021/09/10 04:31:16;;;;;;;18.00;16.30;;;17.70;99.90;;;;;;5054113;28;20179;-89
2021/09/10 04:33:43;;;;;;;17.07;15.43;;;17.70;99.90;;;;;;5053951;28;20516;-90
2021/09/10 04:36:09;;;;;;;17.57;15.70;;;17.70;99.90;;;;;;5055110;28;20414;-91
2021/09/10 04:38:35;;;;;;;18.50;16.60;;;17.70;99.90;;;;;;5055227;28;20769;-93
2021/09/10 04:41:00;;;;;;;16.23;14.73;;;17.70;99.90;;;;;;5055409;28;20167;-94
2021/09/10 04:43:26;;;;;;;18.93;17.00;;;17.80;99.90;;;;;;5055728;28;20175;-93
2021/09/10 04:45:51;;;;;;;18.07;16.33;;;17.80;99.90;;;;;;5055399;28;20285;-92
2021/09/10 04:48:17;;;;;;;18.67;16.80;;;17.80;99.90;;;;;;5055143;28;20681;-90
2021/09/10 04:50:43;;;;;;;17.90;16.30;;;17.80;99.90;;;;;;5055266;28;20208;-89
2021/09/10 04:53:08;;;;;;;18.43;16.63;;;17.80;99.90;;;;;;5054785;28;20176;-91
2021/09/10 04:55:34;;;;;;;18.67;16.53;;;17.90;99.90;;;;;;5055136;28;20255;-90
2021/09/10 04:57:59;;;;;;;20.00;17.50;;;17.90;99.90;;;;;;5055004;28;20173;-91
2021/09/10 05:00:25;;;;;;;24.10;21.63;;;18.10;99.90;;;;;;5054640;28;20183;-93
2021/09/10 05:02:51;;;;;;;24.53;22.03;;;18.30;99.90;;;;;;5055470;28;20211;-92
2021/09/10 05:05:19;;;;;;;29.00;25.77;;;18.20;99.90;;;;;;5054230;28;20243;-91
2021/09/10 05:07:45;;;;;;;45.20;31.60;;;18.30;99.90;;;;;;5052831;28;20182;-88
2021/09/10 05:10:11;;;;;;;10.17;6.97;;;18.00;99.90;;;;;;5052796;28;20429;-88
2021/09/10 05:12:36;;;;;;;39.50;25.70;;;18.00;99.90;;;;;;5052508;28;20222;-88
2021/09/10 05:15:03;;;;;;;46.70;35.20;;;17.90;99.90;;;;;;5053654;28;20239;-86
2021/09/10 05:17:29;;;;;;;49.90;36.37;;;17.90;99.90;;;;;;5053580;28;20252;-87
2021/09/10 05:19:54;;;;;;;49.70;40.17;;;18.00;99.90;;;;;;5052149;28;20523;-87
2021/09/10 05:22:20;;;;;;;59.43;42.10;;;18.00;99.90;;;;;;5053363;28;20421;-87
2021/09/10 05:24:46;;;;;;;57.80;45.07;;;18.10;99.90;;;;;;5053290;28;20286;-86
2021/09/10 05:27:11;;;;;;;60.00;44.20;;;18.10;99.90;;;;;;5053295;28;20178;-86
2021/09/10 05:29:37;;;;;;;56.87;44.60;;;18.20;99.90;;;;;;5053402;28;20179;-86
2021/09/10 05:32:03;;;;;;;55.97;44.77;;;18.30;99.90;;;;;;5053478;28;20245;-87
2021/09/10 05:34:28;;;;;;;55.57;43.53;;;18.30;99.90;;;;;;5052032;28;20608;-88
2021/09/10 05:36:54;;;;;;;62.90;46.23;;;18.30;99.90;;;;;;5051802;28;20516;-88
2021/09/10 05:39:21;;;;;;;58.07;44.60;;;18.40;99.90;;;;;;5053536;28;20195;-90
2021/09/10 05:41:47;;;;;;;59.47;43.50;;;18.40;99.90;;;;;;5052892;28;20198;-88
2021/09/10 05:44:13;;;;;;;55.73;43.67;;;18.40;99.90;;;;;;5052611;28;20452;-90
2021/09/10 05:46:39;;;;;;;52.07;42.67;;;18.50;99.90;;;;;;5052855;28;20247;-88
2021/09/10 05:49:05;;;;;;;57.30;43.30;;;18.60;99.90;;;;;;5052407;28;20423;-88
2021/09/10 05:51:31;;;;;;;58.90;40.70;;;18.70;99.90;;;;;;5053012;28;20411;-88
2021/09/10 05:53:56;;;;;;;53.07;42.00;;;18.80;99.90;;;;;;5053195;28;20173;-89
2021/09/10 05:56:22;;;;;;;53.20;40.50;;;18.80;99.90;;;;;;5053155;28;20173;-88
2021/09/10 05:58:47;;;;;;;49.83;40.67;;;18.70;99.90;;;;;;5051963;28;20180;-88
2021/09/10 06:01:13;;;;;;;48.30;40.77;;;18.70;99.90;;;;;;5051901;28;20220;-89
2021/09/10 06:03:39;;;;;;;52.90;41.17;;;18.70;99.90;;;;;;5053154;28;20228;-87
2021/09/10 06:06:08;;;;;;;48.97;40.80;;;18.60;99.90;;;;;;5051626;28;20483;-88
2021/09/10 06:08:34;;;;;;;52.70;41.40;;;18.60;99.90;;;;;;5053060;28;20172;-89
2021/09/10 06:11:00;;;;;;;56.03;41.20;;;18.60;99.90;;;;;;5051685;28;20978;-89
2021/09/10 06:13:25;;;;;;;57.93;42.83;;;18.50;99.90;;;;;;5052030;28;20423;-90
2021/09/10 06:15:51;;;;;;;56.00;41.87;;;18.50;99.90;;;;;;5051621;28;20254;-89
2021/09/10 06:18:17;;;;;;;59.10;46.57;;;18.40;99.90;;;;;;5058742;28;20527;-89
2021/09/10 06:20:42;;;;;;;62.30;47.10;;;18.30;99.90;;;;;;5058450;28;20183;-88
2021/09/10 06:23:08;;;;;;;64.07;48.63;;;18.30;99.90;;;;;;5058653;28;20176;-89
2021/09/10 06:25:33;;;;;;;62.40;43.47;;;18.20;99.90;;;;;;5059259;28;20237;-89
2021/09/10 06:27:59;;;;;;;54.57;43.57;;;18.20;99.90;;;;;;5060211;28;20245;-91
2021/09/10 06:30:25;;;;;;;52.17;40.80;;;18.30;99.90;;;;;;5059938;28;20180;-88
2021/09/10 06:32:50;;;;;;;55.03;43.20;;;18.20;99.90;;;;;;5060049;28;20198;-87
2021/09/10 06:35:18;;;;;;;58.40;43.60;;;18.20;99.90;;;;;;5058556;28;20197;-87
2021/09/10 06:37:44;;;;;;;57.33;44.60;;;18.20;99.90;;;;;;5057720;28;20628;-87
2021/09/10 06:40:10;;;;;;;58.37;43.27;;;18.20;99.90;;;;;;5059821;28;20431;-87
2021/09/10 06:42:36;;;;;;;62.20;46.10;;;18.20;99.90;;;;;;5057842;28;20173;-87
2021/09/10 06:45:02;;;;;;;62.40;45.83;;;18.20;99.90;;;;;;5057773;28;20470;-87
2021/09/10 06:47:28;;;;;;;73.23;45.47;;;18.20;99.90;;;;;;5057390;28;20726;-86
2021/09/10 06:49:55;;;;;;;69.17;45.97;;;18.10;99.90;;;;;;5059102;28;20437;-87
2021/09/10 06:52:21;;;;;;;65.17;43.33;;;18.10;99.90;;;;;;5057404;28;20519;-86
2021/09/10 06:54:47;;;;;;;68.97;44.83;;;18.10;99.90;;;;;;5059109;28;20411;-86
2021/09/10 06:57:12;;;;;;;68.17;46.70;;;18.10;99.90;;;;;;5058954;28;20538;-85
2021/09/10 06:59:38;;;;;;;66.20;44.30;;;18.20;99.90;;;;;;5058988;28;20180;-86
2021/09/10 07:02:04;;;;;;;69.70;44.00;;;18.10;99.90;;;;;;5059014;28;20595;-87
2021/09/10 07:04:30;;;;;;;67.30;46.17;;;18.10;99.90;;;;;;5058881;28;20532;-87
2021/09/10 07:06:56;;;;;;;67.13;45.57;;;18.10;99.90;;;;;;5057319;28;20276;-87
2021/09/10 07:09:21;;;;;;;66.97;43.60;;;18.20;99.90;;;;;;5058531;28;20504;-87
2021/09/10 07:11:47;;;;;;;61.63;40.87;;;18.20;99.90;;;;;;5058722;28;20227;-85
2021/09/10 07:14:14;;;;;;;59.07;39.37;;;18.10;99.90;;;;;;5057571;28;20208;-87
2021/09/10 07:16:39;;;;;;;53.87;37.37;;;18.00;99.90;;;;;;5058846;28;20173;-85
2021/09/10 07:19:05;;;;;;;47.87;37.67;;;18.00;99.90;;;;;;5058908;28;20469;-86
2021/09/10 07:21:31;;;;;;;50.73;39.97;;;18.00;99.90;;;;;;5056732;28;20225;-86
2021/09/10 07:23:56;;;;;;;50.40;36.90;;;18.00;99.90;;;;;;5058909;28;20555;-87
2021/09/10 07:26:24;;;;;;;53.50;37.63;;;18.10;99.90;;;;;;5058571;28;20252;-86
2021/09/10 07:28:52;;;;;;;39.70;33.80;;;18.00;99.90;;;;;;5055319;28;20177;-86
2021/09/10 07:31:18;;;;;;;41.93;34.60;;;18.00;99.90;;;;;;5055951;28;20563;-85
2021/09/10 07:33:43;;;;;;;46.63;36.70;;;18.20;99.90;;;;;;5056281;28;20461;-86
2021/09/10 07:36:09;;;;;;;50.57;37.10;;;18.10;99.90;;;;;;5054868;28;20267;-87
2021/09/10 07:38:36;;;;;;;48.87;38.43;;;18.00;99.90;;;;;;5055076;28;20172;-88
2021/09/10 07:41:02;;;;;;;54.63;38.67;;;18.10;99.90;;;;;;5055664;28;20655;-86
2021/09/10 07:43:28;;;;;;;51.17;36.70;;;18.00;99.90;;;;;;5054512;28;20423;-87
2021/09/10 07:45:54;;;;;;;57.10;40.50;;;18.10;99.90;;;;;;5055313;28;20471;-85
2021/09/10 07:48:20;;;;;;;55.20;40.97;;;18.10;99.90;;;;;;5053988;28;20635;-86
2021/09/10 07:50:45;;;;;;;53.20;39.93;;;18.10;99.90;;;;;;5054006;28;20273;-87
2021/09/10 07:53:11;;;;;;;53.77;41.63;;;18.10;99.90;;;;;;5054872;28;20176;-88
2021/09/10 07:55:38;;;;;;;53.80;38.90;;;18.10;99.90;;;;;;5055218;28;20414;-87
2021/09/10 07:58:03;;;;;;;52.83;41.57;;;18.20;99.90;;;;;;5053756;28;20172;-86
2021/09/10 08:00:29;;;;;;;52.10;39.47;;;18.30;99.90;;;;;;5053721;28;20489;-86
2021/09/10 08:02:55;;;;;;;53.20;39.77;;;18.30;99.90;;;;;;5053842;28;20172;-85
2021/09/10 08:05:20;;;;;;;56.90;41.33;;;18.30;99.90;;;;;;5054902;28;20211;-86
2021/09/10 08:07:46;;;;;;;60.63;43.23;;;18.30;99.90;;;;;;5053343;28;20167;-85
2021/09/10 08:10:14;;;;;;;57.37;42.50;;;18.30;99.90;;;;;;5054528;28;20246;-86
2021/09/10 08:12:44;;;;;;;52.60;40.43;;;18.30;99.90;;;;;;5053512;28;20225;-86
2021/09/10 08:15:11;;;;;;;56.03;43.57;;;18.40;99.90;;;;;;5054893;28;20403;-86
2021/09/10 08:17:37;;;;;;;62.93;45.83;;;18.30;99.90;;;;;;5053539;28;20416;-86
2021/09/10 08:20:04;;;;;;;59.00;46.87;;;18.40;99.90;;;;;;5053553;28;20410;-88
2021/09/10 08:22:30;;;;;;;58.83;42.10;;;18.40;99.90;;;;;;5054062;28;20410;-86
2021/09/10 08:24:57;;;;;;;58.77;44.27;;;18.30;99.90;;;;;;5052953;28;21084;-85
2021/09/10 08:27:26;;;;;;;60.77;45.23;;;18.40;99.90;;;;;;5055082;28;20318;-86
2021/09/10 08:29:58;;;;;;;58.50;47.00;;;18.40;99.90;;;;;;5054995;28;20464;-87
2021/09/10 08:32:25;;;;;;;60.20;43.67;;;18.40;99.90;;;;;;5054514;28;20415;-88
2021/09/10 08:34:51;;;;;;;57.67;44.27;;;18.30;99.90;;;;;;5053334;28;20503;-85
2021/09/10 08:37:17;;;;;;;63.67;46.57;;;18.30;99.90;;;;;;5053774;28;20421;-84
2021/09/10 08:39:43;;;;;;;62.37;43.50;;;18.40;99.90;;;;;;5053611;28;20411;-90
2021/09/10 08:42:09;;;;;;;63.90;46.40;;;18.40;99.90;;;;;;5052133;28;20535;-87
2021/09/10 08:44:39;;;;;;;66.67;47.57;;;18.30;99.90;;;;;;5054240;28;20232;-90
2021/09/10 08:47:04;;;;;;;69.60;44.80;;;18.40;99.90;;;;;;5055304;28;20517;-87
2021/09/10 08:49:30;;;;;;;61.10;44.83;;;18.40;99.90;;;;;;5052453;28;20474;-87
2021/09/10 08:51:56;;;;;;;56.13;43.30;;;18.40;99.90;;;;;;5069811;28;20175;-89
2021/09/10 08:54:21;;;;;;;52.67;41.00;;;18.30;99.90;;;;;;5072060;28;20173;-89
2021/09/10 08:56:47;;;;;;;49.80;38.20;;;18.30;99.90;;;;;;5071816;28;20214;-88
2021/09/10 08:59:17;;;;;;;52.53;38.43;;;18.30;99.90;;;;;;5071722;28;20953;-89
2021/09/10 09:01:52;;;;;;;50.17;36.33;;;18.30;99.90;;;;;;5073959;28;20637;-90
2021/09/10 09:04:23;;;;;;;46.90;37.80;;;18.40;99.90;;;;;;5074029;28;20414;-85
2021/09/10 09:06:58;;;;;;;47.30;36.70;;;18.30;99.90;;;;;;5072665;28;20437;-88
2021/09/10 09:09:45;;;;;;;44.40;34.27;;;18.30;99.90;;;;;;5064826;28;20834;-89
2021/09/10 09:12:22;;;;;;;48.27;35.50;;;18.20;99.90;;;;;;5063511;28;20481;-87
2021/09/10 09:14:53;;;;;;;40.43;32.47;;;18.30;99.90;;;;;;5073030;28;20414;-89
2021/09/10 09:17:28;;;;;;;42.70;32.07;;;18.30;99.90;;;;;;5056515;28;20445;-87
2021/09/10 09:20:12;;;;;;;39.20;30.57;;;18.30;99.90;;;;;;5052431;28;20455;-86
2021/09/10 09:23:00;;;;;;;39.20;30.30;;;18.30;99.90;;;;;;5053328;28;20414;-87
2021/09/10 09:25:45;;;;;;;41.37;31.43;;;18.30;99.90;;;;;;5053362;28;20470;-86
2021/09/10 09:28:21;;;;;;;38.53;28.37;;;18.30;99.90;;;;;;5053455;28;20423;-83
2021/09/10 09:30:50;;;;;;;35.97;29.47;;;18.30;99.90;;;;;;5053520;28;21110;-85
2021/09/10 09:33:17;;;;;;;33.80;28.27;;;18.30;99.90;;;;;;5053501;28;20422;-83
2021/09/10 09:35:43;;;;;;;34.27;29.23;;;18.30;99.90;;;;;;5052915;28;20415;-83
2021/09/10 09:38:16;;;;;;;33.70;26.60;;;18.40;99.90;;;;;;5061330;28;20513;-81
2021/09/10 09:40:43;;;;;;;31.40;27.37;;;18.30;99.90;;;;;;5053391;28;20164;-85
2021/09/10 09:43:17;;;;;;;35.50;26.90;;;18.40;99.90;;;;;;5053180;28;20476;-85
2021/09/10 09:45:46;;;;;;;31.30;25.40;;;18.30;99.90;;;;;;5052714;28;20822;-83
2021/09/10 09:48:15;;;;;;;30.90;26.57;;;18.40;99.90;;;;;;5053120;28;20502;-86
2021/09/10 09:50:42;;;;;;;30.27;25.00;;;18.40;99.90;;;;;;5052570;28;20799;-82
2021/09/10 09:53:08;;;;;;;27.37;24.07;;;18.50;99.90;;;;;;5052569;28;20414;-82
2021/09/10 09:55:35;;;;;;;28.10;25.10;;;18.40;99.90;;;;;;5058075;28;20923;-86
2021/09/10 09:58:05;;;;;;;28.20;24.00;;;18.50;99.90;;;;;;5073010;28;20172;-86
2021/09/10 10:00:35;;;;;;;29.60;26.00;;;18.50;99.90;;;;;;5072963;28;20999;-83
2021/09/10 10:03:02;;;;;;;30.33;25.60;;;18.60;99.90;;;;;;5073084;28;20895;-82
2021/09/10 10:05:29;;;;;;;31.50;25.73;;;18.60;99.90;;;;;;5072675;28;20480;-82
2021/09/10 10:08:05;;;;;;;34.47;27.07;;;18.60;99.90;;;;;;5071728;28;20422;-82
2021/09/10 10:11:11;;;;;;;30.47;26.73;;;18.60;99.90;;;;;;5096789;22;20595;-85
2021/09/10 10:13:37;;;;;;;34.10;27.43;;;18.60;99.90;;;;;;5026449;28;20417;-81
2021/09/10 10:16:03;;;;;;;29.03;25.93;;;18.70;99.90;;;;;;5033055;28;20416;-86
2021/09/10 10:18:43;;;;;;;26.70;22.93;;;18.60;99.90;;;;;;5033079;28;20424;-83
2021/09/10 10:21:13;;;;;;;24.27;21.67;;;18.50;99.90;;;;;;5032928;28;20404;-85
2021/09/10 10:23:42;;;;;;;25.67;21.90;;;18.50;99.90;;;;;;5033192;28;20405;-82
2021/09/10 10:26:10;;;;;;;24.70;20.60;;;18.50;99.90;;;;;;5033107;28;20482;-82
2021/09/10 10:28:53;;;;;;;24.40;20.70;;;18.50;99.90;;;;;;5032893;28;20420;-87
2021/09/10 10:31:58;;;;;;;22.77;20.33;;;18.60;99.90;;;;;;5031564;28;20997;-83
2021/09/10 10:34:25;;;;;;;25.47;20.63;;;18.60;99.90;;;;;;5032013;28;20404;-90
2021/09/10 10:36:51;;;;;;;23.10;20.37;;;18.80;99.90;;;;;;5031759;28;20420;-82
2021/09/10 10:39:20;;;;;;;24.03;20.33;;;18.90;99.90;;;;;;5032970;28;20401;-84
2021/09/10 10:41:56;;;;;;;22.17;18.50;;;19.00;99.90;;;;;;5032788;28;20200;-84
2021/09/10 10:44:34;;;;;;;20.27;17.30;;;18.80;99.90;;;;;;5032801;28;20444;-83
2021/09/10 10:47:14;;;;;;;18.83;16.30;;;18.90;99.90;;;;;;5032874;28;20420;-90
2021/09/10 10:49:50;;;;;;;18.50;15.90;;;19.00;99.90;;;;;;5032278;28;20424;-84
2021/09/10 10:52:36;;;;;;;15.73;14.13;;;19.10;99.90;;;;;;5026212;28;20421;-82
2021/09/10 10:55:20;;;;;;;16.50;14.33;;;19.10;99.90;;;;;;5018090;28;20434;-87
2021/09/10 10:57:47;;;;;;;16.20;14.27;;;19.20;99.90;;;;;;5011560;28;20432;-86
2021/09/10 11:00:28;;;;;;;17.23;15.40;;;19.10;99.90;;;;;;5011855;28;20441;-89
2021/09/10 11:03:12;;;;;;;16.30;14.73;;;19.20;99.90;;;;;;5012388;28;20426;-86
2021/09/10 11:05:52;;;;;;;15.53;13.57;;;19.10;99.90;;;;;;5014624;28;20552;-81
2021/09/10 11:08:39;;;;;;;17.40;13.70;;;19.00;99.90;;;;;;5016657;28;20447;-86
2021/09/10 11:11:05;;;;;;;15.63;14.03;;;19.10;99.90;;;;;;5016266;28;20560;-84
2021/09/10 11:13:31;;;;;;;13.93;12.40;;;19.20;99.90;;;;;;5016172;28;20500;-82
2021/09/10 11:15:57;;;;;;;13.33;11.87;;;19.20;99.90;;;;;;5015916;28;20166;-90
2021/09/10 11:18:26;;;;;;;12.27;10.87;;;19.40;99.90;;;;;;5016059;28;20172;-83
2021/09/10 11:20:56;;;;;;;13.87;10.93;;;19.50;99.90;;;;;;5015721;28;20410;-82
2021/09/10 11:23:25;;;;;;;12.37;11.23;;;19.60;99.90;;;;;;5066792;22;20489;-87
2021/09/10 11:25:56;;;;;;;14.00;12.60;;;19.70;99.90;;;;;;5013056;28;20485;-87
2021/09/10 11:28:25;;;;;;;13.57;12.13;;;19.80;99.90;;;;;;5015085;28;20416;-86
2021/09/10 11:30:51;;;;;;;14.27;10.97;;;19.80;99.90;;;;;;5014762;28;20479;-85
2021/09/10 11:33:18;;;;;;;12.70;11.40;;;19.80;99.90;;;;;;5013173;28;20426;-85
2021/09/10 11:35:45;;;;;;;12.83;11.57;;;19.90;99.90;;;;;;5014157;28;20410;-86
2021/09/10 11:38:15;;;;;;;14.27;11.50;;;20.20;99.90;;;;;;5014401;28;20411;-87
2021/09/10 11:40:55;;;;;;;11.63;10.30;;;20.20;99.90;;;;;;5013139;28;20434;-85
2021/09/10 11:43:24;;;;;;;12.10;10.70;;;20.30;99.90;;;;;;5014621;28;20486;-86
2021/09/10 11:45:55;;;;;;;11.27;9.93;;;20.40;99.90;;;;;;5017039;28;20993;-87
2021/09/10 11:48:25;;;;;;;10.17;9.33;;;20.60;99.90;;;;;;5014471;28;20522;-88
2021/09/10 11:50:59;;;;;;;10.77;8.10;;;21.00;99.90;;;;;;5013501;28;20504;-89
2021/09/10 11:53:31;;;;;;;6.40;5.17;;;21.10;99.90;;;;;;5014565;28;20431;-88
2021/09/10 11:56:08;;;;;;;6.63;6.03;;;21.50;99.90;;;;;;5015920;28;20440;-94
2021/09/10 11:58:42;;;;;;;8.00;5.53;;;22.00;99.90;;;;;;5015555;28;20419;-91
2021/09/10 12:01:28;;;;;;;5.03;4.50;;;22.60;99.90;;;;;;4994801;28;20437;-88
2021/09/10 12:04:02;;;;;;;4.83;4.27;;;22.30;99.90;;;;;;5027420;28;20483;-91
2021/09/10 12:06:35;;;;;;;4.77;4.23;;;22.40;99.90;;;;;;5013909;28;20465;-90
2021/09/10 12:09:16;;;;;;;5.80;4.77;;;24.00;99.90;;;;;;5014865;28;20463;-91
2021/09/10 12:12:00;;;;;;;3.73;3.30;;;24.60;99.90;;;;;;5013887;28;20426;-90
2021/09/10 12:14:51;;;;;;;3.03;2.33;;;23.60;99.90;;;;;;5013389;28;20811;-89
2021/09/10 12:17:23;;;;;;;4.23;3.47;;;24.30;99.90;;;;;;5013837;28;20440;-90
2021/09/10 12:19:56;;;;;;;7.20;2.97;;;24.00;99.90;;;;;;5013672;28;20930;-92
2021/09/10 12:22:50;;;;;;;2.23;1.60;;;24.60;99.90;;;;;;5013785;28;20428;-91
2021/09/10 12:25:25;;;;;;;3.40;2.13;;;26.30;99.90;;;;;;5016171;28;20477;-93
2021/09/10 12:28:02;;;;;;;2.40;2.10;;;24.60;99.90;;;;;;5015488;28;20417;-94
2021/09/10 12:30:30;;;;;;;3.13;2.80;;;23.70;99.90;;;;;;5015539;28;20417;-92
2021/09/10 12:32:56;;;;;;;3.23;2.50;;;23.30;99.90;;;;;;5014947;28;20414;-89